sensor_id;sensor_type;location;lat;lon;timestamp;P1;durP1;ratioP1;P2;durP2;ratioP2
2267;SDS011;11052;43.338;25.502;2022-08-19T00:00:33;10.03;;;3.40;;
2267;SDS011;11052;43.338;25.502;2022-08-19T00:03:01;4.10;;;3.80;;
2267;SDS011;11052;43.338;25.502;2022-08-19T00:05:28;3.30;;;3.00;;
2267;SDS011;11052;43.338;25.502;2022-08-19T00:07:55;2.97;;;2.57;;
2267;SDS011;11052;43.338;25.502;2022-08-19T00:10:22;3.23;;;2.93;;
2267;SDS011;11052;43.338;25.502;2022-08-19T00:12:52;2.90;;;2.57;;
2267;SDS011;11052;43.338;25.502;2022-08-19T00:15:20;4.80;;;3.57;;
2267;SDS011;11052;43.338;25.502;2022-08-19T00:17:48;5.10;;;2.60;;
2267;SDS011;11052;43.338;25.502;2022-08-19T00:20:19;3.57;;;3.27;;
2267;SDS011;11052;43.338;25.502;2022-08-19T00:22:48;2.77;;;2.40;;
2267;SDS011;11052;43.338;25.502;2022-08-19T00:25:16;3.87;;;3.03;;
2267;SDS011;11052;43.338;25.502;2022-08-19T00:27:44;3.80;;;3.43;;
2267;SDS011;11052;43.338;25.502;2022-08-19T00:30:14;3.60;;;3.00;;
2267;SDS011;11052;43.338;25.502;2022-08-19T00:32:41;4.87;;;3.73;;
2267;SDS011;11052;43.338;25.502;2022-08-19T00:35:08;3.13;;;2.93;;
2267;SDS011;11052;43.338;25.502;2022-08-19T00:37:36;3.07;;;2.67;;
2267;SDS011;11052;43.338;25.502;2022-08-19T00:40:08;3.23;;;2.63;;
2267;SDS011;11052;43.338;25.502;2022-08-19T00:42:37;4.20;;;3.00;;
2267;SDS011;11052;43.338;25.502;2022-08-19T00:45:08;3.30;;;2.90;;
2267;SDS011;11052;43.338;25.502;2022-08-19T00:47:40;3.43;;;3.17;;
2267;SDS011;11052;43.338;25.502;2022-08-19T00:50:07;3.63;;;3.33;;
2267;SDS011;11052;43.338;25.502;2022-08-19T00:52:36;3.03;;;2.83;;
2267;SDS011;11052;43.338;25.502;2022-08-19T00:55:11;5.27;;;4.77;;
2267;SDS011;11052;43.338;25.502;2022-08-19T00:57:42;4.10;;;3.70;;
2267;SDS011;11052;43.338;25.502;2022-08-19T01:00:13;3.73;;;2.83;;
2267;SDS011;11052;43.338;25.502;2022-08-19T01:02:45;4.40;;;4.00;;
2267;SDS011;11052;43.338;25.502;2022-08-19T01:05:14;4.47;;;2.97;;
2267;SDS011;11052;43.338;25.502;2022-08-19T01:07:46;4.17;;;3.77;;
2267;SDS011;11052;43.338;25.502;2022-08-19T01:10:15;3.90;;;3.50;;
2267;SDS011;11052;43.338;25.502;2022-08-19T01:12:45;3.40;;;3.10;;
2267;SDS011;11052;43.338;25.502;2022-08-19T01:15:14;3.47;;;2.77;;
2267;SDS011;11052;43.338;25.502;2022-08-19T01:17:45;3.70;;;3.10;;
2267;SDS011;11052;43.338;25.502;2022-08-19T01:20:14;3.53;;;2.57;;
2267;SDS011;11052;43.338;25.502;2022-08-19T01:22:46;3.00;;;2.70;;
2267;SDS011;11052;43.338;25.502;2022-08-19T01:25:17;3.37;;;2.80;;
2267;SDS011;11052;43.338;25.502;2022-08-19T01:27:47;3.03;;;2.53;;
2267;SDS011;11052;43.338;25.502;2022-08-19T01:30:17;3.50;;;3.17;;
2267;SDS011;11052;43.338;25.502;2022-08-19T01:32:48;4.20;;;3.20;;
2267;SDS011;11052;43.338;25.502;2022-08-19T01:35:16;4.13;;;3.23;;
2267;SDS011;11052;43.338;25.502;2022-08-19T01:37:47;2.93;;;2.63;;
2267;SDS011;11052;43.338;25.502;2022-08-19T01:40:17;2.73;;;2.40;;
2267;SDS011;11052;43.338;25.502;2022-08-19T01:42:45;4.43;;;4.00;;
2267;SDS011;11052;43.338;25.502;2022-08-19T01:45:13;3.50;;;3.20;;
2267;SDS011;11052;43.338;25.502;2022-08-19T01:47:40;2.67;;;2.47;;
2267;SDS011;11052;43.338;25.502;2022-08-19T01:50:09;3.20;;;2.43;;
2267;SDS011;11052;43.338;25.502;2022-08-19T01:52:38;4.30;;;3.97;;
2267;SDS011;11052;43.338;25.502;2022-08-19T01:55:09;5.33;;;3.53;;
2267;SDS011;11052;43.338;25.502;2022-08-19T01:57:38;2.83;;;2.27;;
2267;SDS011;11052;43.338;25.502;2022-08-19T02:00:08;3.57;;;3.27;;
2267;SDS011;11052;43.338;25.502;2022-08-19T02:02:39;5.33;;;3.20;;
2267;SDS011;11052;43.338;25.502;2022-08-19T02:05:06;6.37;;;3.80;;
2267;SDS011;11052;43.338;25.502;2022-08-19T02:07:34;4.80;;;4.30;;
2267;SDS011;11052;43.338;25.502;2022-08-19T02:10:02;4.33;;;3.83;;
2267;SDS011;11052;43.338;25.502;2022-08-19T02:12:31;4.63;;;4.07;;
2267;SDS011;11052;43.338;25.502;2022-08-19T02:14:58;3.80;;;3.30;;
2267;SDS011;11052;43.338;25.502;2022-08-19T02:17:26;4.17;;;3.03;;
2267;SDS011;11052;43.338;25.502;2022-08-19T02:19:54;3.27;;;2.97;;
2267;SDS011;11052;43.338;25.502;2022-08-19T02:22:21;6.40;;;3.10;;
2267;SDS011;11052;43.338;25.502;2022-08-19T02:24:50;4.53;;;3.50;;
2267;SDS011;11052;43.338;25.502;2022-08-19T02:27:17;3.50;;;2.53;;
2267;SDS011;11052;43.338;25.502;2022-08-19T02:29:46;3.23;;;3.00;;
2267;SDS011;11052;43.338;25.502;2022-08-19T02:32:14;5.53;;;3.40;;
2267;SDS011;11052;43.338;25.502;2022-08-19T02:34:42;4.03;;;3.20;;
2267;SDS011;11052;43.338;25.502;2022-08-19T02:37:09;3.43;;;3.13;;
2267;SDS011;11052;43.338;25.502;2022-08-19T02:39:56;5.07;;;4.30;;
2267;SDS011;11052;43.338;25.502;2022-08-19T02:42:23;6.30;;;3.93;;
2267;SDS011;11052;43.338;25.502;2022-08-19T02:44:52;3.80;;;3.30;;
2267;SDS011;11052;43.338;25.502;2022-08-19T02:47:21;2.67;;;2.27;;
2267;SDS011;11052;43.338;25.502;2022-08-19T02:49:48;5.83;;;3.37;;
2267;SDS011;11052;43.338;25.502;2022-08-19T02:52:15;4.77;;;3.80;;
2267;SDS011;11052;43.338;25.502;2022-08-19T02:54:42;3.63;;;3.13;;
2267;SDS011;11052;43.338;25.502;2022-08-19T02:57:10;3.10;;;2.77;;
2267;SDS011;11052;43.338;25.502;2022-08-19T02:59:37;5.47;;;3.83;;
2267;SDS011;11052;43.338;25.502;2022-08-19T03:02:06;3.97;;;3.27;;
2267;SDS011;11052;43.338;25.502;2022-08-19T03:04:33;4.30;;;3.70;;
2267;SDS011;11052;43.338;25.502;2022-08-19T03:07:00;3.70;;;2.20;;
2267;SDS011;11052;43.338;25.502;2022-08-19T03:09:27;4.17;;;3.77;;
2267;SDS011;11052;43.338;25.502;2022-08-19T03:11:55;4.10;;;3.27;;
2267;SDS011;11052;43.338;25.502;2022-08-19T03:14:22;3.03;;;2.70;;
2267;SDS011;11052;43.338;25.502;2022-08-19T03:16:50;4.33;;;3.83;;
2267;SDS011;11052;43.338;25.502;2022-08-19T03:19:19;3.17;;;2.43;;
2267;SDS011;11052;43.338;25.502;2022-08-19T03:21:47;5.40;;;3.60;;
2267;SDS011;11052;43.338;25.502;2022-08-19T03:24:15;4.07;;;3.20;;
2267;SDS011;11052;43.338;25.502;2022-08-19T03:26:44;3.37;;;3.03;;
2267;SDS011;11052;43.338;25.502;2022-08-19T03:29:14;3.33;;;2.57;;
2267;SDS011;11052;43.338;25.502;2022-08-19T03:31:43;4.13;;;3.30;;
2267;SDS011;11052;43.338;25.502;2022-08-19T03:34:13;3.97;;;3.10;;
2267;SDS011;11052;43.338;25.502;2022-08-19T03:36:44;4.90;;;4.50;;
2267;SDS011;11052;43.338;25.502;2022-08-19T03:39:12;4.67;;;3.30;;
2267;SDS011;11052;43.338;25.502;2022-08-19T03:41:41;4.07;;;3.13;;
2267;SDS011;11052;43.338;25.502;2022-08-19T03:44:09;3.33;;;2.23;;
2267;SDS011;11052;43.338;25.502;2022-08-19T03:46:37;3.70;;;3.10;;
2267;SDS011;11052;43.338;25.502;2022-08-19T03:49:04;6.43;;;2.83;;
2267;SDS011;11052;43.338;25.502;2022-08-19T03:51:33;3.80;;;3.43;;
2267;SDS011;11052;43.338;25.502;2022-08-19T03:54:04;3.83;;;2.90;;
2267;SDS011;11052;43.338;25.502;2022-08-19T03:56:33;3.13;;;2.90;;
2267;SDS011;11052;43.338;25.502;2022-08-19T03:59:01;2.67;;;2.17;;
2267;SDS011;11052;43.338;25.502;2022-08-19T04:01:28;3.83;;;2.50;;
2267;SDS011;11052;43.338;25.502;2022-08-19T04:03:56;3.17;;;2.73;;
2267;SDS011;11052;43.338;25.502;2022-08-19T04:06:25;2.97;;;2.67;;
2267;SDS011;11052;43.338;25.502;2022-08-19T04:08:55;4.90;;;3.60;;
2267;SDS011;11052;43.338;25.502;2022-08-19T04:11:27;4.00;;;3.57;;
2267;SDS011;11052;43.338;25.502;2022-08-19T04:13:55;3.77;;;2.90;;
2267;SDS011;11052;43.338;25.502;2022-08-19T04:16:24;3.93;;;3.00;;
2267;SDS011;11052;43.338;25.502;2022-08-19T04:18:54;3.33;;;2.80;;
2267;SDS011;11052;43.338;25.502;2022-08-19T04:21:22;3.60;;;2.90;;
2267;SDS011;11052;43.338;25.502;2022-08-19T04:23:50;2.80;;;2.60;;
2267;SDS011;11052;43.338;25.502;2022-08-19T04:26:19;2.70;;;2.27;;
2267;SDS011;11052;43.338;25.502;2022-08-19T04:28:49;2.87;;;2.10;;
2267;SDS011;11052;43.338;25.502;2022-08-19T04:31:18;2.70;;;2.40;;
2267;SDS011;11052;43.338;25.502;2022-08-19T04:33:47;5.17;;;4.37;;
2267;SDS011;11052;43.338;25.502;2022-08-19T04:36:18;3.20;;;2.80;;
2267;SDS011;11052;43.338;25.502;2022-08-19T04:38:46;5.90;;;4.07;;
2267;SDS011;11052;43.338;25.502;2022-08-19T04:41:14;4.70;;;3.30;;
2267;SDS011;11052;43.338;25.502;2022-08-19T04:44:00;4.67;;;3.23;;
2267;SDS011;11052;43.338;25.502;2022-08-19T04:46:27;2.93;;;2.60;;
2267;SDS011;11052;43.338;25.502;2022-08-19T04:48:55;4.23;;;2.83;;
2267;SDS011;11052;43.338;25.502;2022-08-19T04:51:23;4.50;;;3.57;;
2267;SDS011;11052;43.338;25.502;2022-08-19T04:53:50;4.73;;;3.07;;
2267;SDS011;11052;43.338;25.502;2022-08-19T04:56:19;5.03;;;3.27;;
2267;SDS011;11052;43.338;25.502;2022-08-19T04:58:49;4.17;;;3.70;;
2267;SDS011;11052;43.338;25.502;2022-08-19T05:01:20;3.43;;;3.10;;
2267;SDS011;11052;43.338;25.502;2022-08-19T05:03:49;6.13;;;3.90;;
2267;SDS011;11052;43.338;25.502;2022-08-19T05:06:18;5.00;;;3.93;;
2267;SDS011;11052;43.338;25.502;2022-08-19T05:08:46;4.60;;;3.87;;
2267;SDS011;11052;43.338;25.502;2022-08-19T05:11:14;4.90;;;4.43;;
2267;SDS011;11052;43.338;25.502;2022-08-19T05:13:43;4.57;;;3.40;;
2267;SDS011;11052;43.338;25.502;2022-08-19T05:16:12;5.17;;;3.73;;
2267;SDS011;11052;43.338;25.502;2022-08-19T05:18:41;3.93;;;3.40;;
2267;SDS011;11052;43.338;25.502;2022-08-19T05:21:25;4.30;;;3.90;;
2267;SDS011;11052;43.338;25.502;2022-08-19T05:24:11;7.70;;;3.47;;
2267;SDS011;11052;43.338;25.502;2022-08-19T05:26:39;3.03;;;2.73;;
2267;SDS011;11052;43.338;25.502;2022-08-19T05:29:08;6.87;;;2.90;;
2267;SDS011;11052;43.338;25.502;2022-08-19T05:31:35;3.80;;;3.50;;
2267;SDS011;11052;43.338;25.502;2022-08-19T05:34:05;4.37;;;3.70;;
2267;SDS011;11052;43.338;25.502;2022-08-19T05:36:34;4.33;;;3.93;;
2267;SDS011;11052;43.338;25.502;2022-08-19T05:39:04;3.63;;;3.33;;
2267;SDS011;11052;43.338;25.502;2022-08-19T05:41:32;5.70;;;3.60;;
2267;SDS011;11052;43.338;25.502;2022-08-19T05:44:01;3.70;;;2.93;;
2267;SDS011;11052;43.338;25.502;2022-08-19T05:46:31;4.17;;;3.80;;
2267;SDS011;11052;43.338;25.502;2022-08-19T05:48:58;4.10;;;2.80;;
2267;SDS011;11052;43.338;25.502;2022-08-19T05:51:27;3.23;;;2.97;;
2267;SDS011;11052;43.338;25.502;2022-08-19T05:53:54;3.90;;;3.00;;
2267;SDS011;11052;43.338;25.502;2022-08-19T05:56:21;4.70;;;3.73;;
2267;SDS011;11052;43.338;25.502;2022-08-19T05:58:48;5.40;;;3.13;;
2267;SDS011;11052;43.338;25.502;2022-08-19T06:01:17;6.17;;;4.43;;
2267;SDS011;11052;43.338;25.502;2022-08-19T06:03:45;2.80;;;2.37;;
2267;SDS011;11052;43.338;25.502;2022-08-19T06:06:14;3.80;;;3.43;;
2267;SDS011;11052;43.338;25.502;2022-08-19T06:08:45;4.30;;;3.90;;
2267;SDS011;11052;43.338;25.502;2022-08-19T06:11:16;3.60;;;3.30;;
2267;SDS011;11052;43.338;25.502;2022-08-19T06:13:46;4.40;;;4.00;;
2267;SDS011;11052;43.338;25.502;2022-08-19T06:16:17;4.13;;;3.60;;
2267;SDS011;11052;43.338;25.502;2022-08-19T06:18:48;3.33;;;3.03;;
2267;SDS011;11052;43.338;25.502;2022-08-19T06:21:17;3.80;;;3.50;;
2267;SDS011;11052;43.338;25.502;2022-08-19T06:23:46;5.90;;;2.90;;
2267;SDS011;11052;43.338;25.502;2022-08-19T06:26:16;2.67;;;2.47;;
2267;SDS011;11052;43.338;25.502;2022-08-19T06:28:49;3.27;;;2.50;;
2267;SDS011;11052;43.338;25.502;2022-08-19T06:31:18;3.90;;;3.50;;
2267;SDS011;11052;43.338;25.502;2022-08-19T06:33:47;3.43;;;3.13;;
2267;SDS011;11052;43.338;25.502;2022-08-19T06:36:18;2.60;;;2.30;;
2267;SDS011;11052;43.338;25.502;2022-08-19T06:38:47;3.03;;;2.83;;
2267;SDS011;11052;43.338;25.502;2022-08-19T06:41:14;5.00;;;3.20;;
2267;SDS011;11052;43.338;25.502;2022-08-19T06:43:42;7.60;;;4.23;;
2267;SDS011;11052;43.338;25.502;2022-08-19T06:46:09;3.30;;;2.77;;
2267;SDS011;11052;43.338;25.502;2022-08-19T06:48:38;2.27;;;2.13;;
2267;SDS011;11052;43.338;25.502;2022-08-19T06:51:06;2.67;;;2.47;;
2267;SDS011;11052;43.338;25.502;2022-08-19T06:53:33;5.00;;;3.30;;
2267;SDS011;11052;43.338;25.502;2022-08-19T06:56:04;2.70;;;2.30;;
2267;SDS011;11052;43.338;25.502;2022-08-19T06:58:31;2.80;;;1.87;;
2267;SDS011;11052;43.338;25.502;2022-08-19T07:00:59;3.03;;;2.57;;
2267;SDS011;11052;43.338;25.502;2022-08-19T07:03:29;2.40;;;2.10;;
2267;SDS011;11052;43.338;25.502;2022-08-19T07:05:57;3.80;;;2.87;;
2267;SDS011;11052;43.338;25.502;2022-08-19T07:08:28;2.47;;;2.27;;
2267;SDS011;11052;43.338;25.502;2022-08-19T07:10:55;2.73;;;2.53;;
2267;SDS011;11052;43.338;25.502;2022-08-19T07:13:24;3.67;;;2.73;;
2267;SDS011;11052;43.338;25.502;2022-08-19T07:15:52;4.00;;;2.37;;
2267;SDS011;11052;43.338;25.502;2022-08-19T07:18:19;2.80;;;2.50;;
2267;SDS011;11052;43.338;25.502;2022-08-19T07:20:48;2.40;;;2.20;;
2267;SDS011;11052;43.338;25.502;2022-08-19T07:23:15;3.00;;;2.57;;
2267;SDS011;11052;43.338;25.502;2022-08-19T07:25:43;3.00;;;2.70;;
2267;SDS011;11052;43.338;25.502;2022-08-19T07:28:12;2.27;;;1.93;;
2267;SDS011;11052;43.338;25.502;2022-08-19T07:30:43;2.20;;;2.00;;
2267;SDS011;11052;43.338;25.502;2022-08-19T07:33:11;4.03;;;2.20;;
2267;SDS011;11052;43.338;25.502;2022-08-19T07:35:42;1.70;;;1.60;;
2267;SDS011;11052;43.338;25.502;2022-08-19T07:38:10;2.80;;;1.70;;
2267;SDS011;11052;43.338;25.502;2022-08-19T07:40:37;2.53;;;2.23;;
2267;SDS011;11052;43.338;25.502;2022-08-19T07:43:05;2.63;;;2.43;;
2267;SDS011;11052;43.338;25.502;2022-08-19T07:45:32;2.53;;;2.33;;
2267;SDS011;11052;43.338;25.502;2022-08-19T07:48:00;2.73;;;2.53;;
2267;SDS011;11052;43.338;25.502;2022-08-19T07:50:30;2.00;;;1.90;;
2267;SDS011;11052;43.338;25.502;2022-08-19T07:52:59;1.70;;;1.60;;
2267;SDS011;11052;43.338;25.502;2022-08-19T07:55:27;2.83;;;2.30;;
2267;SDS011;11052;43.338;25.502;2022-08-19T07:57:55;1.70;;;1.60;;
2267;SDS011;11052;43.338;25.502;2022-08-19T08:00:22;2.60;;;2.37;;
2267;SDS011;11052;43.338;25.502;2022-08-19T08:02:51;3.37;;;2.40;;
2267;SDS011;11052;43.338;25.502;2022-08-19T08:05:21;3.13;;;2.83;;
2267;SDS011;11052;43.338;25.502;2022-08-19T08:08:06;3.40;;;2.50;;
2267;SDS011;11052;43.338;25.502;2022-08-19T08:10:50;2.93;;;2.10;;
2267;SDS011;11052;43.338;25.502;2022-08-19T08:13:17;3.20;;;1.90;;
2267;SDS011;11052;43.338;25.502;2022-08-19T08:15:44;2.30;;;2.10;;
2267;SDS011;11052;43.338;25.502;2022-08-19T08:18:12;2.17;;;1.97;;
2267;SDS011;11052;43.338;25.502;2022-08-19T08:20:41;3.07;;;2.77;;
2267;SDS011;11052;43.338;25.502;2022-08-19T08:23:08;1.73;;;1.60;;
2267;SDS011;11052;43.338;25.502;2022-08-19T08:25:53;3.97;;;2.83;;
2267;SDS011;11052;43.338;25.502;2022-08-19T08:28:22;1.90;;;1.80;;
2267;SDS011;11052;43.338;25.502;2022-08-19T08:30:50;2.83;;;2.63;;
2267;SDS011;11052;43.338;25.502;2022-08-19T08:33:19;9.97;;;2.77;;
2267;SDS011;11052;43.338;25.502;2022-08-19T08:35:51;2.20;;;2.00;;
2267;SDS011;11052;43.338;25.502;2022-08-19T08:38:19;2.10;;;2.00;;
2267;SDS011;11052;43.338;25.502;2022-08-19T08:40:48;2.00;;;1.90;;
2267;SDS011;11052;43.338;25.502;2022-08-19T08:43:21;2.60;;;2.40;;
2267;SDS011;11052;43.338;25.502;2022-08-19T08:45:52;2.87;;;2.43;;
2267;SDS011;11052;43.338;25.502;2022-08-19T08:48:30;2.70;;;1.80;;
2267;SDS011;11052;43.338;25.502;2022-08-19T08:51:08;3.20;;;2.90;;
2267;SDS011;11052;43.338;25.502;2022-08-19T08:53:39;2.00;;;1.80;;
2267;SDS011;11052;43.338;25.502;2022-08-19T08:56:09;2.20;;;2.00;;
2267;SDS011;11052;43.338;25.502;2022-08-19T08:58:45;2.30;;;2.10;;
2267;SDS011;11052;43.338;25.502;2022-08-19T09:01:18;2.10;;;1.87;;
2267;SDS011;11052;43.338;25.502;2022-08-19T09:03:45;2.80;;;2.60;;
2267;SDS011;11052;43.338;25.502;2022-08-19T09:06:18;4.17;;;2.23;;
2267;SDS011;11052;43.338;25.502;2022-08-19T09:08:54;2.77;;;2.30;;
2267;SDS011;11052;43.338;25.502;2022-08-19T09:11:33;2.70;;;2.20;;
2267;SDS011;11052;43.338;25.502;2022-08-19T09:14:12;3.50;;;2.43;;
2267;SDS011;11052;43.338;25.502;2022-08-19T09:16:46;2.40;;;2.20;;
2267;SDS011;11052;43.338;25.502;2022-08-19T09:19:15;3.80;;;1.97;;
2267;SDS011;11052;43.338;25.502;2022-08-19T09:21:44;2.37;;;1.90;;
2267;SDS011;11052;43.338;25.502;2022-08-19T09:24:11;2.73;;;2.53;;
2267;SDS011;11052;43.338;25.502;2022-08-19T09:26:39;2.57;;;2.33;;
2267;SDS011;11052;43.338;25.502;2022-08-19T09:29:09;3.37;;;3.07;;
2267;SDS011;11052;43.338;25.502;2022-08-19T09:31:37;3.00;;;2.00;;
2267;SDS011;11052;43.338;25.502;2022-08-19T09:34:05;3.27;;;2.03;;
2267;SDS011;11052;43.338;25.502;2022-08-19T09:36:33;2.40;;;2.20;;
2267;SDS011;11052;43.338;25.502;2022-08-19T09:39:04;2.53;;;2.33;;
2267;SDS011;11052;43.338;25.502;2022-08-19T09:41:32;2.77;;;2.40;;
2267;SDS011;11052;43.338;25.502;2022-08-19T09:43:59;2.50;;;2.10;;
2267;SDS011;11052;43.338;25.502;2022-08-19T09:46:29;2.20;;;2.00;;
2267;SDS011;11052;43.338;25.502;2022-08-19T09:48:58;3.20;;;2.07;;
2267;SDS011;11052;43.338;25.502;2022-08-19T09:51:27;1.63;;;1.53;;
2267;SDS011;11052;43.338;25.502;2022-08-19T09:53:58;2.20;;;2.00;;
2267;SDS011;11052;43.338;25.502;2022-08-19T09:56:31;6.57;;;4.07;;
2267;SDS011;11052;43.338;25.502;2022-08-19T09:59:02;2.47;;;2.00;;
2267;SDS011;11052;43.338;25.502;2022-08-19T10:01:30;2.73;;;2.50;;
2267;SDS011;11052;43.338;25.502;2022-08-19T10:03:58;2.47;;;2.27;;
2267;SDS011;11052;43.338;25.502;2022-08-19T10:06:29;2.27;;;2.07;;
2267;SDS011;11052;43.338;25.502;2022-08-19T10:08:58;3.60;;;2.83;;
2267;SDS011;11052;43.338;25.502;2022-08-19T10:11:30;2.43;;;2.17;;
2267;SDS011;11052;43.338;25.502;2022-08-19T10:14:02;3.80;;;2.77;;
2267;SDS011;11052;43.338;25.502;2022-08-19T10:16:32;2.40;;;2.00;;
2267;SDS011;11052;43.338;25.502;2022-08-19T10:19:00;3.03;;;2.83;;
2267;SDS011;11052;43.338;25.502;2022-08-19T10:21:29;2.30;;;1.83;;
2267;SDS011;11052;43.338;25.502;2022-08-19T10:23:58;2.23;;;2.03;;
2267;SDS011;11052;43.338;25.502;2022-08-19T10:26:30;2.97;;;2.47;;
2267;SDS011;11052;43.338;25.502;2022-08-19T10:29:01;2.20;;;1.87;;
2267;SDS011;11052;43.338;25.502;2022-08-19T10:31:30;2.07;;;1.87;;
2267;SDS011;11052;43.338;25.502;2022-08-19T10:34:00;3.10;;;2.73;;
2267;SDS011;11052;43.338;25.502;2022-08-19T10:36:29;3.30;;;2.83;;
2267;SDS011;11052;43.338;25.502;2022-08-19T10:38:59;3.10;;;2.80;;
2267;SDS011;11052;43.338;25.502;2022-08-19T10:41:33;4.03;;;2.27;;
2267;SDS011;11052;43.338;25.502;2022-08-19T10:44:03;3.63;;;2.20;;
2267;SDS011;11052;43.338;25.502;2022-08-19T10:46:33;3.40;;;2.57;;
2267;SDS011;11052;43.338;25.502;2022-08-19T10:49:04;2.23;;;2.03;;
2267;SDS011;11052;43.338;25.502;2022-08-19T10:51:31;2.33;;;2.13;;
2267;SDS011;11052;43.338;25.502;2022-08-19T10:54:28;1.97;;;1.77;;
2267;SDS011;11052;43.338;25.502;2022-08-19T10:57:10;2.50;;;2.30;;
2267;SDS011;11052;43.338;25.502;2022-08-19T10:59:37;2.20;;;2.00;;
2267;SDS011;11052;43.338;25.502;2022-08-19T11:02:05;2.23;;;2.03;;
2267;SDS011;11052;43.338;25.502;2022-08-19T11:04:37;1.93;;;1.83;;
2267;SDS011;11052;43.338;25.502;2022-08-19T11:07:05;3.60;;;2.40;;
2267;SDS011;11052;43.338;25.502;2022-08-19T11:09:36;1.90;;;1.80;;
2267;SDS011;11052;43.338;25.502;2022-08-19T11:12:06;4.03;;;2.40;;
2267;SDS011;11052;43.338;25.502;2022-08-19T11:14:36;2.30;;;2.10;;
2267;SDS011;11052;43.338;25.502;2022-08-19T11:17:05;4.33;;;2.50;;
2267;SDS011;11052;43.338;25.502;2022-08-19T11:19:32;2.10;;;1.87;;
2267;SDS011;11052;43.338;25.502;2022-08-19T11:22:00;4.27;;;2.90;;
2267;SDS011;11052;43.338;25.502;2022-08-19T11:24:28;2.30;;;2.10;;
2267;SDS011;11052;43.338;25.502;2022-08-19T11:27:01;5.20;;;2.10;;
2267;SDS011;11052;43.338;25.502;2022-08-19T11:29:31;2.40;;;1.83;;
2267;SDS011;11052;43.338;25.502;2022-08-19T11:32:03;2.27;;;1.90;;
2267;SDS011;11052;43.338;25.502;2022-08-19T11:34:31;2.50;;;2.30;;
2267;SDS011;11052;43.338;25.502;2022-08-19T11:37:00;2.10;;;1.90;;
2267;SDS011;11052;43.338;25.502;2022-08-19T11:39:30;2.50;;;1.93;;
2267;SDS011;11052;43.338;25.502;2022-08-19T11:41:59;3.93;;;2.67;;
2267;SDS011;11052;43.338;25.502;2022-08-19T11:44:50;1.97;;;1.87;;
2267;SDS011;11052;43.338;25.502;2022-08-19T11:47:18;3.27;;;2.97;;
2267;SDS011;11052;43.338;25.502;2022-08-19T11:49:46;2.13;;;1.93;;
2267;SDS011;11052;43.338;25.502;2022-08-19T11:52:18;2.70;;;2.50;;
2267;SDS011;11052;43.338;25.502;2022-08-19T11:54:46;2.43;;;1.50;;
2267;SDS011;11052;43.338;25.502;2022-08-19T11:57:14;2.50;;;2.03;;
2267;SDS011;11052;43.338;25.502;2022-08-19T11:59:47;2.37;;;2.00;;
2267;SDS011;11052;43.338;25.502;2022-08-19T12:02:15;1.93;;;1.83;;
2267;SDS011;11052;43.338;25.502;2022-08-19T12:04:46;2.80;;;2.53;;
2267;SDS011;11052;43.338;25.502;2022-08-19T12:07:14;2.20;;;2.00;;
2267;SDS011;11052;43.338;25.502;2022-08-19T12:09:49;7.83;;;3.23;;
2267;SDS011;11052;43.338;25.502;2022-08-19T12:12:19;2.30;;;1.87;;
2267;SDS011;11052;43.338;25.502;2022-08-19T12:14:49;2.10;;;1.60;;
2267;SDS011;11052;43.338;25.502;2022-08-19T12:17:24;2.40;;;1.93;;
2267;SDS011;11052;43.338;25.502;2022-08-19T12:19:53;2.73;;;2.57;;
2267;SDS011;11052;43.338;25.502;2022-08-19T12:22:24;2.53;;;2.13;;
2267;SDS011;11052;43.338;25.502;2022-08-19T12:24:53;1.93;;;1.83;;
2267;SDS011;11052;43.338;25.502;2022-08-19T12:27:20;2.20;;;2.00;;
2267;SDS011;11052;43.338;25.502;2022-08-19T12:29:47;2.77;;;2.57;;
2267;SDS011;11052;43.338;25.502;2022-08-19T12:32:15;4.73;;;2.00;;
2267;SDS011;11052;43.338;25.502;2022-08-19T12:34:42;3.00;;;2.20;;
2267;SDS011;11052;43.338;25.502;2022-08-19T12:37:14;2.60;;;1.87;;
2267;SDS011;11052;43.338;25.502;2022-08-19T12:39:42;1.60;;;1.50;;
2267;SDS011;11052;43.338;25.502;2022-08-19T12:42:10;2.57;;;2.37;;
2267;SDS011;11052;43.338;25.502;2022-08-19T12:44:40;2.20;;;1.83;;
2267;SDS011;11052;43.338;25.502;2022-08-19T12:47:09;1.73;;;1.63;;
2267;SDS011;11052;43.338;25.502;2022-08-19T12:49:39;2.10;;;1.90;;
2267;SDS011;11052;43.338;25.502;2022-08-19T12:52:07;2.30;;;1.80;;
2267;SDS011;11052;43.338;25.502;2022-08-19T12:54:44;3.33;;;3.10;;
2267;SDS011;11052;43.338;25.502;2022-08-19T12:57:12;3.17;;;2.20;;
2267;SDS011;11052;43.338;25.502;2022-08-19T12:59:40;2.10;;;1.93;;
2267;SDS011;11052;43.338;25.502;2022-08-19T13:02:11;2.33;;;1.57;;
2267;SDS011;11052;43.338;25.502;2022-08-19T13:04:38;3.23;;;2.37;;
2267;SDS011;11052;43.338;25.502;2022-08-19T13:07:07;1.97;;;1.87;;
2267;SDS011;11052;43.338;25.502;2022-08-19T13:09:35;2.43;;;1.70;;
2267;SDS011;11052;43.338;25.502;2022-08-19T13:12:05;2.23;;;2.03;;
2267;SDS011;11052;43.338;25.502;2022-08-19T13:14:38;2.27;;;1.83;;
2267;SDS011;11052;43.338;25.502;2022-08-19T13:17:05;1.60;;;1.00;;
2267;SDS011;11052;43.338;25.502;2022-08-19T13:19:38;1.80;;;1.40;;
2267;SDS011;11052;43.338;25.502;2022-08-19T13:22:06;1.70;;;1.50;;
2267;SDS011;11052;43.338;25.502;2022-08-19T13:24:37;1.80;;;1.57;;
2267;SDS011;11052;43.338;25.502;2022-08-19T13:27:06;3.07;;;2.43;;
2267;SDS011;11052;43.338;25.502;2022-08-19T13:29:34;1.53;;;1.43;;
2267;SDS011;11052;43.338;25.502;2022-08-19T13:32:30;2.40;;;1.43;;
2267;SDS011;11052;43.338;25.502;2022-08-19T13:35:15;2.33;;;2.20;;
2267;SDS011;11052;43.338;25.502;2022-08-19T13:37:42;1.80;;;1.50;;
2267;SDS011;11052;43.338;25.502;2022-08-19T13:40:11;3.60;;;2.33;;
2267;SDS011;11052;43.338;25.502;2022-08-19T13:42:45;1.57;;;1.40;;
2267;SDS011;11052;43.338;25.502;2022-08-19T13:45:16;2.03;;;1.90;;
2267;SDS011;11052;43.338;25.502;2022-08-19T13:47:47;2.00;;;1.77;;
2267;SDS011;11052;43.338;25.502;2022-08-19T13:50:16;1.70;;;1.40;;
2267;SDS011;11052;43.338;25.502;2022-08-19T13:52:47;5.10;;;1.60;;
2267;SDS011;11052;43.338;25.502;2022-08-19T13:55:15;2.07;;;1.97;;
2267;SDS011;11052;43.338;25.502;2022-08-19T13:57:47;1.60;;;1.37;;
2267;SDS011;11052;43.338;25.502;2022-08-19T14:00:17;1.10;;;1.00;;
2267;SDS011;11052;43.338;25.502;2022-08-19T14:02:50;3.57;;;1.80;;
2267;SDS011;11052;43.338;25.502;2022-08-19T14:05:18;2.07;;;1.80;;
2267;SDS011;11052;43.338;25.502;2022-08-19T14:07:45;2.20;;;2.00;;
2267;SDS011;11052;43.338;25.502;2022-08-19T14:10:14;2.10;;;1.87;;
2267;SDS011;11052;43.338;25.502;2022-08-19T14:12:45;2.27;;;2.07;;
2267;SDS011;11052;43.338;25.502;2022-08-19T14:15:14;2.23;;;1.90;;
2267;SDS011;11052;43.338;25.502;2022-08-19T14:17:43;1.67;;;1.37;;
2267;SDS011;11052;43.338;25.502;2022-08-19T14:20:11;1.63;;;1.53;;
2267;SDS011;11052;43.338;25.502;2022-08-19T14:22:41;2.07;;;1.93;;
2267;SDS011;11052;43.338;25.502;2022-08-19T14:25:11;2.27;;;2.07;;
2267;SDS011;11052;43.338;25.502;2022-08-19T14:27:40;2.63;;;1.70;;
2267;SDS011;11052;43.338;25.502;2022-08-19T14:30:12;2.23;;;1.50;;
2267;SDS011;11052;43.338;25.502;2022-08-19T14:32:41;1.87;;;1.67;;
2267;SDS011;11052;43.338;25.502;2022-08-19T14:35:10;1.40;;;1.30;;
2267;SDS011;11052;43.338;25.502;2022-08-19T14:37:39;3.53;;;2.00;;
2267;SDS011;11052;43.338;25.502;2022-08-19T14:40:08;1.77;;;1.50;;
2267;SDS011;11052;43.338;25.502;2022-08-19T14:42:36;5.23;;;1.43;;
2267;SDS011;11052;43.338;25.502;2022-08-19T14:45:04;2.50;;;1.90;;
2267;SDS011;11052;43.338;25.502;2022-08-19T14:47:34;1.67;;;1.20;;
2267;SDS011;11052;43.338;25.502;2022-08-19T14:50:01;1.73;;;1.63;;
2267;SDS011;11052;43.338;25.502;2022-08-19T14:52:29;2.30;;;2.10;;
2267;SDS011;11052;43.338;25.502;2022-08-19T14:54:56;2.50;;;2.00;;
2267;SDS011;11052;43.338;25.502;2022-08-19T14:57:23;1.80;;;1.40;;
2267;SDS011;11052;43.338;25.502;2022-08-19T14:59:51;2.17;;;1.97;;
2267;SDS011;11052;43.338;25.502;2022-08-19T15:02:19;1.13;;;1.03;;